createdAt,value
2022-08-17T00:00:42.579Z,21.10
2022-08-17T00:03:48.322Z,21.09
2022-08-17T00:06:50.893Z,21.18
2022-08-17T00:09:53.305Z,21.13
2022-08-17T00:12:55.728Z,21.07
2022-08-17T00:16:03.591Z,21.06
2022-08-17T00:19:08.897Z,21.10
2022-08-17T00:22:32.891Z,21.08
2022-08-17T00:25:34.592Z,21.08
2022-08-17T00:28:38.527Z,21.03
2022-08-17T00:31:40.958Z,20.94
2022-08-17T00:34:43.370Z,20.82
2022-08-17T00:37:45.526Z,20.78
2022-08-17T00:41:00.098Z,20.64
2022-08-17T00:44:05.124Z,20.63
2022-08-17T00:47:07.746Z,20.60
2022-08-17T00:50:15.703Z,20.58
2022-08-17T00:53:18.058Z,20.54
2022-08-17T00:56:28.630Z,20.52
2022-08-17T00:59:37.388Z,20.41
2022-08-17T01:02:43.993Z,20.41
2022-08-17T01:05:50.411Z,20.40
2022-08-17T01:08:57.499Z,20.28
2022-08-17T01:12:00.485Z,20.16
2022-08-17T01:15:04.153Z,20.15
2022-08-17T01:18:09.499Z,20.13
2022-08-17T01:21:36.382Z,20.07
2022-08-17T01:24:47.309Z,19.97
2022-08-17T01:27:49.831Z,19.94
2022-08-17T01:30:58.254Z,20.05
2022-08-17T01:34:06.654Z,20.07
2022-08-17T01:37:09.430Z,20.06
2022-08-17T01:40:35.163Z,19.79
2022-08-17T01:43:45.493Z,19.79
2022-08-17T01:46:47.702Z,19.63
2022-08-17T01:49:50.649Z,19.45
2022-08-17T01:52:58.173Z,19.32
2022-08-17T01:56:07.103Z,19.32
2022-08-17T01:59:10.085Z,19.39
2022-08-17T02:02:12.573Z,19.47
2022-08-17T02:05:35.192Z,19.54
2022-08-17T02:08:39.486Z,19.47
2022-08-17T02:12:38.172Z,19.60
2022-08-17T02:15:27.016Z,19.66
2022-08-17T02:18:30.189Z,19.35
2022-08-17T02:21:32.500Z,19.32
2022-08-17T02:24:58.697Z,19.26
2022-08-17T02:28:00.544Z,19.34
2022-08-17T02:31:08.749Z,19.36
2022-08-17T02:34:11.157Z,19.24
2022-08-17T02:37:14.135Z,19.22
2022-08-17T02:40:17.057Z,19.22
2022-08-17T02:43:35.873Z,19.13
2022-08-17T02:46:38.052Z,19.14
2022-08-17T02:49:40.492Z,19.25
2022-08-17T02:52:44.687Z,19.27
2022-08-17T02:55:53.262Z,19.19
2022-08-17T02:58:55.558Z,19.18
2022-08-17T03:01:58.033Z,19.12
2022-08-17T03:05:00.213Z,19.11
2022-08-17T03:08:05.559Z,19.09
2022-08-17T03:11:07.872Z,19.14
2022-08-17T03:14:10.733Z,19.18
2022-08-17T03:17:17.347Z,19.24
2022-08-17T03:20:21.539Z,19.21
2022-08-17T03:23:25.593Z,19.14
2022-08-17T03:26:29.623Z,19.12
2022-08-17T03:29:32.034Z,19.03
2022-08-17T03:32:46.395Z,18.97
2022-08-17T03:35:48.838Z,18.97
2022-08-17T03:38:51.589Z,18.98
2022-08-17T03:41:55.156Z,18.92
2022-08-17T03:44:58.211Z,18.99
2022-08-17T03:48:21.616Z,19.09
2022-08-17T03:52:01.582Z,19.14
2022-08-17T03:55:35.840Z,19.10
2022-08-17T03:58:40.432Z,19.23
2022-08-17T04:01:50.337Z,19.32
2022-08-17T04:05:03.090Z,19.33
2022-08-17T04:08:10.155Z,19.32
2022-08-17T04:11:15.833Z,19.44
2022-08-17T04:14:22.002Z,19.52
2022-08-17T04:17:51.085Z,19.52
2022-08-17T04:20:57.508Z,19.50
2022-08-17T04:27:40.646Z,19.74
2022-08-17T04:31:05.718Z,19.79
2022-08-17T04:34:14.599Z,19.95
2022-08-17T04:37:34.156Z,19.97
2022-08-17T04:41:04.201Z,20.04
2022-08-17T04:44:13.623Z,20.23
2022-08-17T04:51:32.369Z,20.51
2022-08-17T04:54:39.248Z,20.72
2022-08-17T04:57:53.765Z,20.93
2022-08-17T05:01:04.172Z,21.04
2022-08-17T05:04:32.155Z,21.24
2022-08-17T05:07:39.608Z,22.67
2022-08-17T05:10:45.215Z,25.59
2022-08-17T05:13:50.773Z,27.94
2022-08-17T05:16:55.299Z,29.87
2022-08-17T05:19:59.424Z,31.31
2022-08-17T05:23:13.983Z,32.65
2022-08-17T05:26:26.534Z,33.80
2022-08-17T05:29:33.634Z,34.82
2022-08-17T05:32:40.371Z,35.74
2022-08-17T05:35:49.864Z,35.81
2022-08-17T05:38:52.499Z,36.23
2022-08-17T05:41:55.429Z,36.90
2022-08-17T05:44:59.319Z,37.17
2022-08-17T05:48:04.488Z,37.79
2022-08-17T05:51:31.973Z,38.62
2022-08-17T05:54:39.510Z,38.56
2022-08-17T05:57:55.932Z,39.35
2022-08-17T06:01:09.642Z,39.95
2022-08-17T06:04:23.692Z,40.47
2022-08-17T06:07:36.869Z,39.94
2022-08-17T06:10:55.964Z,39.94
2022-08-17T06:14:06.206Z,39.40
2022-08-17T06:17:14.481Z,39.51
2022-08-17T06:20:17.233Z,40.06
2022-08-17T06:24:02.471Z,40.21
2022-08-17T06:27:23.453Z,40.32
2022-08-17T06:30:59.107Z,41.56
2022-08-17T06:33:51.885Z,41.54
2022-08-17T06:37:09.060Z,41.24
2022-08-17T06:40:36.229Z,42.24
2022-08-17T06:44:06.582Z,42.19
2022-08-17T06:47:27.923Z,42.85
2022-08-17T06:50:35.938Z,42.37
2022-08-17T06:54:06.404Z,42.61
2022-08-17T06:57:30.610Z,42.92
2022-08-17T07:00:41.708Z,44.66
2022-08-17T07:03:59.406Z,43.22
2022-08-17T07:07:28.742Z,43.08
2022-08-17T07:10:43.009Z,43.18
2022-08-17T07:14:15.219Z,44.55
2022-08-17T07:17:21.530Z,44.93
2022-08-17T07:20:48.406Z,43.99
2022-08-17T07:24:30.749Z,43.71
2022-08-17T07:27:45.297Z,44.63
2022-08-17T07:30:54.388Z,44.40
2022-08-17T07:34:01.705Z,44.47
2022-08-17T07:37:05.298Z,44.27
2022-08-17T07:40:27.560Z,44.70
2022-08-17T07:43:41.798Z,43.41
2022-08-17T07:47:12.818Z,42.69
2022-08-17T07:50:27.524Z,42.17
2022-08-17T07:53:32.022Z,40.90
2022-08-17T07:56:39.408Z,39.79
2022-08-17T08:00:01.698Z,39.39
2022-08-17T08:03:23.713Z,38.39
2022-08-17T08:06:28.734Z,37.17
2022-08-17T08:09:41.736Z,36.98
2022-08-17T08:13:00.426Z,35.96
2022-08-17T08:16:22.592Z,35.36
2022-08-17T08:19:26.202Z,34.61
2022-08-17T08:22:38.303Z,34.08
2022-08-17T08:25:40.587Z,33.61
2022-08-17T08:29:00.408Z,33.45
2022-08-17T08:32:08.138Z,33.40
2022-08-17T08:35:26.783Z,32.96
2022-08-17T08:38:34.917Z,32.69
2022-08-17T08:41:49.121Z,32.81
2022-08-17T08:45:10.058Z,33.10
2022-08-17T08:48:53.000Z,33.09
2022-08-17T08:51:56.697Z,33.17
2022-08-17T08:55:11.554Z,33.01
2022-08-17T08:58:31.563Z,32.85
2022-08-17T09:02:09.658Z,32.49
2022-08-17T09:05:29.568Z,32.70
2022-08-17T09:08:44.073Z,32.94
2022-08-17T09:12:04.134Z,32.64
2022-08-17T09:15:21.784Z,32.65
2022-08-17T09:19:01.562Z,33.04
2022-08-17T09:21:58.419Z,33.20
2022-08-17T09:25:13.644Z,33.26
2022-08-17T09:28:20.589Z,33.20
2022-08-17T09:31:35.452Z,33.09
2022-08-17T09:34:56.563Z,32.98
2022-08-17T09:38:16.207Z,32.90
2022-08-17T09:41:49.307Z,32.97
2022-08-17T09:45:06.907Z,33.30
2022-08-17T09:48:21.369Z,33.37
2022-08-17T09:51:48.605Z,33.48
2022-08-17T09:54:53.396Z,33.35
2022-08-17T09:58:34.696Z,32.92
2022-08-17T10:01:55.385Z,32.85
2022-08-17T10:05:07.353Z,32.64
2022-08-17T10:08:47.963Z,32.37
2022-08-17T10:12:17.122Z,32.03
2022-08-17T10:15:30.439Z,32.19
2022-08-17T10:18:49.656Z,32.92
2022-08-17T10:22:14.881Z,33.22
2022-08-17T10:26:14.436Z,33.74
2022-08-17T10:29:25.084Z,34.40
2022-08-17T10:32:40.748Z,34.59
2022-08-17T10:35:59.235Z,34.92
2022-08-17T10:39:15.904Z,35.07
2022-08-17T10:42:57.534Z,35.26
2022-08-17T10:46:31.388Z,35.58
2022-08-17T10:49:56.152Z,35.43
2022-08-17T10:52:58.896Z,35.79
2022-08-17T10:56:13.491Z,35.83
2022-08-17T10:59:34.681Z,36.02
2022-08-17T11:02:52.388Z,36.27
2022-08-17T11:06:14.144Z,36.16
2022-08-17T11:09:50.119Z,36.09
2022-08-17T11:13:15.117Z,35.96
2022-08-17T11:16:36.289Z,36.13
2022-08-17T11:19:47.865Z,36.35
2022-08-17T11:22:58.047Z,35.95
2022-08-17T11:26:04.091Z,35.94
2022-08-17T11:29:17.969Z,35.56
2022-08-17T11:32:38.769Z,35.62
2022-08-17T11:36:04.161Z,35.56
2022-08-17T11:39:25.222Z,35.31
2022-08-17T11:43:04.756Z,34.90
2022-08-17T11:46:23.085Z,34.76
2022-08-17T11:50:00.648Z,34.94
2022-08-17T11:53:05.893Z,34.64
2022-08-17T11:56:31.541Z,34.12
2022-08-17T11:59:36.910Z,33.79
2022-08-17T12:02:48.141Z,33.66
2022-08-17T12:06:01.084Z,34.02
2022-08-17T12:09:13.621Z,34.49
2022-08-17T12:12:35.477Z,34.97
2022-08-17T12:15:48.663Z,35.17
2022-08-17T12:18:57.963Z,34.93
2022-08-17T12:22:12.940Z,34.60
2022-08-17T12:25:25.975Z,34.58
2022-08-17T12:28:35.968Z,34.73
2022-08-17T12:31:49.433Z,34.99
2022-08-17T12:34:51.821Z,34.95
2022-08-17T12:37:57.663Z,35.09
2022-08-17T12:41:21.013Z,35.35
2022-08-17T12:44:36.088Z,35.37
2022-08-17T12:47:48.737Z,35.64
2022-08-17T12:50:52.409Z,35.82
2022-08-17T12:53:55.556Z,36.00
2022-08-17T12:57:04.588Z,35.86
2022-08-17T13:00:17.504Z,35.51
2022-08-17T13:03:23.151Z,35.29
2022-08-17T13:06:34.328Z,35.36
2022-08-17T13:09:40.392Z,35.54
2022-08-17T13:12:43.092Z,35.65
2022-08-17T13:15:54.056Z,35.60
2022-08-17T13:19:08.407Z,35.70
2022-08-17T13:22:12.823Z,35.50
2022-08-17T13:25:16.749Z,35.63
2022-08-17T13:28:30.593Z,35.52
2022-08-17T13:31:51.786Z,35.64
2022-08-17T13:35:14.455Z,35.75
2022-08-17T13:38:36.241Z,35.58
2022-08-17T13:41:38.948Z,35.66
2022-08-17T13:44:41.435Z,35.75
2022-08-17T13:47:44.038Z,35.68
2022-08-17T13:50:55.480Z,35.76
2022-08-17T13:54:00.343Z,35.79
2022-08-17T13:57:05.187Z,35.69
2022-08-17T14:00:29.962Z,35.60
2022-08-17T14:03:32.598Z,35.60
2022-08-17T14:06:54.779Z,35.33
2022-08-17T14:10:06.051Z,35.04
2022-08-17T14:13:14.751Z,35.18
2022-08-17T14:16:17.376Z,35.09
2022-08-17T14:19:21.957Z,34.82
2022-08-17T14:22:31.307Z,34.77
2022-08-17T14:25:33.518Z,34.72
2022-08-17T14:28:38.640Z,34.60
2022-08-17T14:31:57.328Z,34.49
2022-08-17T14:35:03.646Z,34.29
2022-08-17T14:38:06.021Z,34.28
2022-08-17T14:41:08.569Z,34.17
2022-08-17T14:44:12.550Z,34.11
2022-08-17T14:47:15.888Z,34.08
2022-08-17T14:50:21.325Z,33.97
2022-08-17T14:53:24.957Z,33.91
2022-08-17T14:56:27.280Z,33.84
2022-08-17T14:59:35.184Z,33.75
2022-08-17T15:03:03.944Z,33.73
2022-08-17T15:06:06.872Z,33.57
2022-08-17T15:09:09.098Z,33.46
2022-08-17T15:12:26.428Z,33.39
2022-08-17T15:15:34.114Z,33.26
2022-08-17T15:18:36.709Z,33.22
2022-08-17T15:21:38.910Z,33.19
2022-08-17T15:24:41.387Z,33.09
2022-08-17T15:27:44.073Z,33.02
2022-08-17T15:30:46.717Z,32.97
2022-08-17T15:33:49.160Z,32.94
2022-08-17T15:36:51.772Z,32.88
2022-08-17T15:39:54.752Z,32.85
2022-08-17T15:42:57.857Z,32.77
2022-08-17T15:46:12.557Z,32.72
2022-08-17T15:49:15.037Z,32.72
2022-08-17T15:52:18.980Z,32.67
2022-08-17T15:55:24.100Z,32.61
2022-08-17T15:58:30.073Z,32.53
2022-08-17T16:01:57.422Z,32.48
2022-08-17T16:05:11.378Z,32.37
2022-08-17T16:08:20.868Z,32.24
2022-08-17T16:11:25.948Z,32.16
2022-08-17T16:14:33.678Z,32.12
2022-08-17T16:17:40.291Z,32.05
2022-08-17T16:20:43.726Z,31.89
2022-08-17T16:23:49.109Z,31.81
2022-08-17T16:26:51.289Z,31.84
2022-08-17T16:29:55.566Z,31.73
2022-08-17T16:33:00.988Z,31.63
2022-08-17T16:36:03.732Z,31.49
2022-08-17T16:39:05.878Z,31.36
2022-08-17T16:42:45.222Z,31.39
2022-08-17T16:45:51.871Z,31.26
2022-08-17T16:48:56.738Z,31.16
2022-08-17T16:52:01.595Z,31.03
2022-08-17T16:55:07.089Z,30.87
2022-08-17T16:58:09.326Z,30.71
2022-08-17T17:01:12.771Z,30.55
2022-08-17T17:04:18.500Z,30.41
2022-08-17T17:07:40.376Z,30.22
2022-08-17T17:10:47.064Z,30.06
2022-08-17T17:14:02.147Z,29.88
2022-08-17T17:17:28.751Z,29.73
2022-08-17T17:20:42.492Z,29.57
2022-08-17T17:23:55.504Z,29.43
2022-08-17T17:27:17.618Z,29.27
2022-08-17T17:30:34.946Z,29.14
2022-08-17T17:33:42.610Z,29.01
2022-08-17T17:36:53.942Z,28.84
2022-08-17T17:40:01.972Z,28.72
2022-08-17T17:43:27.618Z,28.54
2022-08-17T17:46:35.249Z,28.40
2022-08-17T17:49:46.692Z,28.29
2022-08-17T17:52:52.181Z,28.15
2022-08-17T17:56:37.498Z,28.07
2022-08-17T18:00:13.348Z,28.00
2022-08-17T18:03:45.822Z,27.86
2022-08-17T18:07:25.535Z,27.76
2022-08-17T18:10:48.931Z,27.70
2022-08-17T18:14:06.827Z,27.54
2022-08-17T18:17:10.668Z,27.39
2022-08-17T18:20:13.981Z,27.36
2022-08-17T18:23:23.144Z,27.13
2022-08-17T18:26:32.750Z,26.91
2022-08-17T18:29:42.693Z,26.71
2022-08-17T18:32:48.895Z,26.59
2022-08-17T18:35:59.217Z,26.51
2022-08-17T18:39:15.309Z,26.41
2022-08-17T18:42:28.822Z,26.40
2022-08-17T18:45:39.357Z,26.40
2022-08-17T18:49:04.016Z,26.35
2022-08-17T18:52:15.350Z,26.35
2022-08-17T18:55:24.024Z,26.33
2022-08-17T18:58:26.192Z,26.29
2022-08-17T19:01:52.374Z,26.26
2022-08-17T19:05:04.614Z,26.21
2022-08-17T19:08:28.744Z,26.18
2022-08-17T19:11:34.633Z,26.08
2022-08-17T19:14:37.303Z,26.00
2022-08-17T19:17:49.089Z,25.96
2022-08-17T19:21:03.610Z,25.91
2022-08-17T19:24:05.643Z,25.85
2022-08-17T19:27:18.014Z,25.76
2022-08-17T19:30:22.120Z,25.62
2022-08-17T19:33:25.753Z,25.62
2022-08-17T19:36:44.491Z,25.61
2022-08-17T19:39:50.042Z,25.61
2022-08-17T19:43:18.751Z,25.57
2022-08-17T19:46:27.323Z,25.50
2022-08-17T19:49:52.590Z,25.48
2022-08-17T19:53:07.293Z,25.45
2022-08-17T19:56:25.001Z,25.42
2022-08-17T20:00:01.800Z,25.37
2022-08-17T20:03:19.106Z,25.28
2022-08-17T20:06:23.016Z,25.19
2022-08-17T20:09:33.478Z,25.14
2022-08-17T20:12:42.563Z,25.10
2022-08-17T20:15:45.974Z,25.03
2022-08-17T20:19:16.883Z,25.00
2022-08-17T20:22:52.119Z,24.95
2022-08-17T20:26:05.352Z,24.87
2022-08-17T20:29:29.561Z,24.78
2022-08-17T20:32:51.826Z,24.72
2022-08-17T20:36:02.407Z,24.66
2022-08-17T20:39:04.943Z,24.51
2022-08-17T20:42:22.390Z,24.30
2022-08-17T20:45:26.071Z,24.24
2022-08-17T20:48:38.459Z,24.22
2022-08-17T20:52:02.389Z,23.93
2022-08-17T20:55:05.235Z,23.96
2022-08-17T20:58:30.814Z,23.98
2022-08-17T21:01:39.906Z,24.00
2022-08-17T21:04:57.288Z,23.94
2022-08-17T21:08:26.053Z,23.83
2022-08-17T21:11:58.225Z,23.81
2022-08-17T21:14:59.924Z,23.79
2022-08-17T21:18:11.410Z,23.66
2022-08-17T21:21:41.539Z,23.70
2022-08-17T21:24:58.898Z,23.61
2022-08-17T21:28:34.206Z,23.55
2022-08-17T21:31:43.146Z,23.47
2022-08-17T21:35:19.810Z,23.51
2022-08-17T21:38:32.685Z,23.39
2022-08-17T21:41:54.848Z,23.28
2022-08-17T21:45:25.270Z,23.13
2022-08-17T21:48:29.895Z,23.17
2022-08-17T21:51:35.895Z,23.23
2022-08-17T21:54:42.633Z,23.24
2022-08-17T21:57:53.224Z,23.22
2022-08-17T22:01:21.643Z,23.15
2022-08-17T22:04:29.807Z,23.03
2022-08-17T22:07:46.650Z,22.89
2022-08-17T22:10:51.165Z,22.78
2022-08-17T22:14:05.111Z,22.70
2022-08-17T22:17:17.681Z,22.70
2022-08-17T22:20:21.515Z,22.71
2022-08-17T22:23:47.846Z,22.69
2022-08-17T22:27:05.853Z,22.61
2022-08-17T22:30:31.609Z,22.47
2022-08-17T22:33:40.263Z,22.49
2022-08-17T22:36:43.370Z,22.38
2022-08-17T22:39:45.567Z,22.44
2022-08-17T22:42:48.120Z,22.34
2022-08-17T22:45:54.490Z,22.32
2022-08-17T22:48:59.451Z,22.33
2022-08-17T22:52:07.467Z,22.35
2022-08-17T22:55:36.181Z,22.25
2022-08-17T22:59:22.489Z,22.37
2022-08-17T23:02:25.102Z,22.34
2022-08-17T23:05:27.301Z,22.48
2022-08-17T23:08:30.990Z,22.59
2022-08-17T23:11:50.066Z,22.45
2022-08-17T23:15:00.470Z,22.35
2022-08-17T23:18:04.792Z,22.45
2022-08-17T23:21:07.728Z,22.44
2022-08-17T23:24:13.929Z,22.27
2022-08-17T23:27:18.811Z,22.21
2022-08-17T23:30:26.318Z,22.19
2022-08-17T23:33:33.202Z,22.25
2022-08-17T23:36:35.344Z,22.23
2022-08-17T23:39:39.318Z,22.07
2022-08-17T23:42:46.255Z,22.03
2022-08-17T23:45:49.888Z,21.93
2022-08-17T23:48:53.935Z,21.87
2022-08-17T23:51:56.726Z,21.79
2022-08-17T23:54:59.356Z,21.81
2022-08-17T23:58:04.370Z,21.74
